• Join FlightAware (Why Join?)
  • Login
  • US Flag GB Flag 
19:59 EST


 

Airport Tracker/Info


-or-


 

Live Flight TrackerFlight Track Log ✈ N240ER ✈ 03-May-2013 ✈ KPTK - KMKE

Flight Track Log - Related Links

Times and Time Zones

All times are in EDT time to prevent confusion due to time zone crossing. See the N240ER flight status page for this flight to view local times or setup timezone preferences in your user account.

Time Position Orientation Groundspeed Altitude Reporting Facility
EDT Latitude Longitude Course Direction KTS MPH feet Rate Location/Type
16:46 42.6653 -83.4042 81° East 101 116 1,500  Level Cleveland Center
16:47 42.6706 -83.3592 81° East 119 137 2,900 1,500 Climbing Cleveland Center
16:48 42.6414 -83.3578 178° South 137 158 4,400 1,086 Climbing Cleveland Center
16:49 42.6094 -83.3903 217° Southwest 179 206 5,000 942 Climbing Cleveland Center
16:50 42.6156 -83.4722 276° West 216 249 6,300 1,043 Climbing Cleveland Center
16:50 42.6061 -83.5228 256° West 171 197 7,000 344 Climbing Cleveland Center
16:52 42.5850 -83.6119 252° West 213 245 7,000 242 Level Cleveland Center
16:52 42.5714 -83.6508 245° Southwest 184 212 7,400 1,370 Climbing Cleveland Center
16:53 42.5553 -83.7092 249° West 195 224 9,100 1,700 Climbing Cleveland Center
16:54 42.5414 -83.7622 250° West 188 216 10,800 1,550 Climbing Cleveland Center
16:55 42.5294 -83.8178 254° West 166 191 12,200 1,450 Climbing Cleveland Center
16:56 42.5214 -83.8767 260° West 166 191 13,700 1,400 Climbing Cleveland Center
16:57 42.5153 -83.9411 263° West 166 191 15,000 1,300 Climbing Cleveland Center
16:58 42.5261 -84.0036 283° West 166 191 16,300 1,300 Climbing Cleveland Center
16:59 42.5469 -84.0697 293° West 171 197 17,600 850 Climbing Cleveland Center
17:00 42.5678 -84.1414 292° West 193 222 18,000 200 Climbing Cleveland Center
17:01 42.5942 -84.2303 292° West 223 257 18,000  Level Cleveland Center
17:02 42.6206 -84.3192 292° West 242 278 18,000  Level Cleveland Center
17:03 42.6467 -84.4083 292° West 256 295 18,000  Level Cleveland Center
17:04 42.6692 -84.4861 291° West 256 295 18,000  Level Cleveland Center
17:05 42.6994 -84.5756 295° West 256 295 18,000  Level Cleveland Center
17:06 42.7183 -84.6428 291° West 258 297 18,000  Level Chicago Center
17:07 42.7444 -84.7339 291° West 259 298 18,000 532 Level Chicago Center
17:08 42.7764 -84.8414 292° West 258 297 19,100 1,258 Climbing Chicago Center
17:09 42.7961 -84.9111 291° West 202 232 20,600 1,355 Climbing Chicago Center
17:10 42.8164 -84.9814 291° West 201 231 21,900 672 Climbing Chicago Center
17:11 42.8394 -85.0628 291° West 227 261 22,000 48 Climbing Chicago Center
17:12 42.8669 -85.1556 292° West 259 298 22,000  Level Chicago Center
17:13 42.8936 -85.2508 291° West 267 307 22,000  Level Chicago Center
17:14 42.9264 -85.3642 292° West 269 310 22,000  Level Chicago Center
17:15 42.9531 -85.4614 291° West 273 314 22,000  Level Chicago Center
17:16 42.9808 -85.5583 291° West 276 318 22,000  Level Chicago Center
17:17 43.0078 -85.6536 291° West 272 313 22,000  Level Chicago Center
17:18 43.0344 -85.7494 291° West 272 313 22,000  Level Chicago Center
17:19 43.0664 -85.8636 291° West 271 312 22,000  Level Chicago Center
17:20 43.0933 -85.9567 292° West 273 314 22,000  Level Chicago Center
17:21 43.1167 -86.0508 289° West 271 312 22,000 -48 Level Chicago Center
17:22 43.1192 -86.1500 272° West 264 304 21,900 -532 Descending Chicago Center
17:23 43.1236 -86.2719 273° West 269 310 20,900 -919 Descending Chicago Center
17:24 43.1278 -86.3700 273° West 261 300 20,000 -871 Descending Chicago Center
17:26 43.1317 -86.4661 273° West 255 293 19,100 -871 Descending Chicago Center
17:27 43.1347 -86.5611 273° West 251 289 18,200 -823 Descending Chicago Center
17:28 43.1386 -86.6528 273° West 244 281 17,400 -823 Descending Chicago Center
17:29 43.1417 -86.7417 273° West 236 272 16,500 -968 Descending Chicago Center
17:30 43.1450 -86.8469 273° West 231 266 15,400 -968 Descending Chicago Center
17:31 43.1478 -86.9342 273° West 231 266 14,500 -871 Descending Chicago Center
17:32 43.1586 -87.0211 280° West 233 268 13,600 -677 Descending Chicago Center
17:33 43.1689 -87.1028 280° West 219 252 13,100 -726 Descending Chicago Center
17:34 43.1731 -87.1828 274° West 214 246 12,100 -919 Descending Chicago Center
17:35 43.1786 -87.2669 275° West 221 254 11,200 -532 Descending Chicago Center
17:36 43.1883 -87.3692 277° West 226 260 11,000 -97 Descending Chicago Center
17:37 43.1806 -87.4417 262° West 210 242 11,000 -435 Level Chicago Center
17:38 43.1661 -87.5281 257° West 199 229 10,100 -919 Descending Chicago Center
17:39 43.1456 -87.6003 249° West 204 235 9,100 -968 Descending Chicago Center
17:40 43.1069 -87.6519 224° Southwest 194 223 8,100 -968 Descending Chicago Center
17:41 43.0689 -87.7000 223° Southwest 189 217 7,100 -532 Descending Chicago Center
17:42 43.0292 -87.7347 213° Southwest 182 209 7,000 -48 Descending Chicago Center
17:43 42.9828 -87.7411 186° South 171 197 7,000 -97 Level Chicago Center
17:44 42.9256 -87.7519 188° South 174 200 6,800 -581 Descending Chicago Center
17:45 42.8775 -87.7611 188° South 173 199 5,800 -871 Descending Chicago Center
17:46 42.8314 -87.7703 188° South 170 196 5,000 -677 Descending Chicago Center
17:47 42.7850 -87.7775 187° South 168 193 4,400 -774 Descending Chicago Center
17:48 42.7586 -87.8300 236° Southwest 175 201 3,400 -871 Descending Chicago Center
17:49 42.7689 -87.8947 282° West 192 221 2,600 -387 Descending Chicago Center
17:50 42.8192 -87.9194 340° North 199 229 2,600 -290 Level Chicago Center
17:51 42.8686 -87.9078 10° North 186 214 2,000 -578 Descending Chicago Center
17:52 42.8833 -87.9000 21° North 132 152 1,800 -593 Descending KMKE
17:53 42.9000 -87.9000 360° North 70 81 1,200 -474 Descending KMKE
17:54 42.9167 -87.9000 360° North 57 66 900 -333 Descending KMKE